Time;durP1;ratioP1;P1;durP2;ratioP2;P2;SDS_P1;SDS_P2;PMS_P1;PMS_P2;Temp;Humidity;BMP_temperature;BMP_pressure;BME280_temperature;BME280_humidity;BME280_pressure;Samples;Min_cycle;Max_cycle;Signal;HPM_P1;HPM_P2
2022/03/11 00:02:10;;;;;;;12.40;8.80;;;;;;;8.89;36.94;101672.78;5294695;28;20028;-73
2022/03/11 00:04:41;;;;;;;18.23;9.30;;;;;;;8.71;37.28;101649.94;5281544;28;20405;-73
2022/03/11 00:07:13;;;;;;;15.53;9.17;;;;;;;8.75;37.46;101661.13;5273825;28;20464;-73
2022/03/11 00:09:44;;;;;;;15.23;10.00;;;;;;;8.83;37.13;101655.63;5274138;28;20048;-72
2022/03/11 00:12:15;;;;;;;14.07;8.77;;;;;;;8.78;37.24;101662.78;5273871;28;20027;-72
2022/03/11 00:14:47;;;;;;;19.73;9.50;;;;;;;8.81;36.98;101667.88;5273887;28;20028;-71
2022/03/11 00:17:18;;;;;;;18.27;9.60;;;;;;;8.76;36.95;101660.22;5276986;28;20082;-71
2022/03/11 00:19:49;;;;;;;12.70;9.13;;;;;;;8.72;37.26;101661.25;5274693;28;20017;-73
2022/03/11 00:22:20;;;;;;;25.20;10.20;;;;;;;8.65;37.47;101663.25;5273822;28;20028;-73
2022/03/11 00:24:52;;;;;;;17.07;10.67;;;;;;;8.62;37.56;101658.16;5273796;28;20089;-73
2022/03/11 00:27:23;;;;;;;14.10;9.17;;;;;;;8.54;37.88;101652.31;5273758;28;20035;-73
2022/03/11 00:29:55;;;;;;;16.07;9.93;;;;;;;8.47;38.14;101655.19;5274625;28;20024;-75
2022/03/11 00:32:26;;;;;;;14.73;9.67;;;;;;;8.50;38.26;101655.97;5273439;28;20369;-72
2022/03/11 00:34:58;;;;;;;16.93;10.20;;;;;;;8.42;38.02;101654.50;5272028;28;20394;-73
2022/03/11 00:37:29;;;;;;;18.67;11.17;;;;;;;8.39;38.35;101649.41;5274001;28;20543;-74
2022/03/11 00:40:00;;;;;;;18.93;10.87;;;;;;;8.27;38.58;101653.34;5273475;28;20032;-72
2022/03/11 00:42:32;;;;;;;20.00;10.80;;;;;;;8.19;38.66;101647.53;5273257;28;20036;-74
2022/03/11 00:45:03;;;;;;;20.40;11.37;;;;;;;8.17;38.77;101646.75;5273468;28;20020;-73
2022/03/11 00:47:35;;;;;;;24.33;12.07;;;;;;;8.08;38.91;101647.94;5272185;28;20120;-72
2022/03/11 00:50:07;;;;;;;14.40;10.03;;;;;;;8.19;38.95;101643.16;5272090;28;20039;-73
2022/03/11 00:52:40;;;;;;;19.07;10.73;;;;;;;8.15;39.25;101645.94;5272609;28;20042;-74
2022/03/11 00:55:12;;;;;;;20.60;10.67;;;;;;;8.01;39.38;101643.84;5273477;28;20032;-74
2022/03/11 00:57:43;;;;;;;17.40;10.67;;;;;;;8.04;39.44;101641.13;5273037;28;20024;-73
2022/03/11 01:00:15;;;;;;;16.97;10.67;;;;;;;8.00;39.38;101632.56;5271968;28;20025;-74
2022/03/11 01:02:47;;;;;;;19.30;11.10;;;;;;;7.93;39.42;101628.44;5272845;28;20293;-74
2022/03/11 01:05:19;;;;;;;18.57;10.77;;;;;;;7.88;39.53;101623.41;5271721;28;20025;-73
2022/03/11 01:07:51;;;;;;;16.10;10.93;;;;;;;7.85;39.69;101618.31;5273121;28;20020;-73
2022/03/11 01:10:23;;;;;;;20.80;10.77;;;;;;;7.77;39.64;101620.34;5272483;28;20455;-74
2022/03/11 01:12:54;;;;;;;18.07;10.90;;;;;;;7.77;39.53;101617.75;5272051;28;20119;-74
2022/03/11 01:15:25;;;;;;;15.10;9.80;;;;;;;7.77;39.62;101607.31;5270660;28;20032;-73
2022/03/11 01:17:57;;;;;;;19.90;10.70;;;;;;;7.74;39.81;101614.34;5272695;28;20086;-74
2022/03/11 01:20:28;;;;;;;18.23;11.17;;;;;;;7.73;39.76;101610.00;5271573;28;20021;-74
2022/03/11 01:23:00;;;;;;;14.17;9.90;;;;;;;7.87;39.39;101599.09;5271247;28;20161;-72
2022/03/11 01:25:31;;;;;;;20.30;10.67;;;;;;;7.79;39.74;101597.66;5272342;28;20028;-72
2022/03/11 01:28:02;;;;;;;16.30;10.73;;;;;;;7.68;39.80;101598.88;5272367;28;20138;-72
2022/03/11 01:30:34;;;;;;;19.67;11.10;;;;;;;7.66;39.96;101590.28;5272097;28;20092;-72
2022/03/11 01:33:05;;;;;;;21.53;11.50;;;;;;;7.67;39.81;101594.59;5271068;28;20499;-72
2022/03/11 01:35:36;;;;;;;18.00;10.10;;;;;;;7.64;39.82;101586.88;5271624;28;20124;-73
2022/03/11 01:38:07;;;;;;;20.83;11.13;;;;;;;7.64;40.04;101576.47;5270742;28;20476;-72
2022/03/11 01:40:39;;;;;;;18.30;10.93;;;;;;;7.67;39.83;101578.09;5272187;28;20047;-72
2022/03/11 01:43:17;;;;;;;14.53;10.13;;;;;;;7.75;39.68;101581.25;5272030;28;20035;-73
2022/03/11 01:45:49;;;;;;;15.40;9.43;;;;;;;7.50;40.15;101566.50;5272461;28;20029;-72
2022/03/11 01:48:20;;;;;;;15.63;10.87;;;;;;;7.42;40.24;101556.34;5271622;28;20051;-73
2022/03/11 01:50:51;;;;;;;24.10;10.57;;;;;;;7.53;40.44;101563.78;5270395;28;20029;-72
2022/03/11 01:53:23;;;;;;;17.23;10.93;;;;;;;7.46;39.67;101560.56;5271520;28;20104;-73
2022/03/11 01:55:54;;;;;;;14.10;10.10;;;;;;;7.37;40.78;101553.91;5270725;28;20849;-73
2022/03/11 01:58:27;;;;;;;14.00;9.40;;;;;;;7.40;40.55;101557.31;5270345;28;20518;-73
2022/03/11 02:00:59;;;;;;;15.20;9.77;;;;;;;7.45;40.18;101551.00;5271605;28;20427;-73
2022/03/11 02:03:31;;;;;;;19.17;10.43;;;;;;;7.40;40.43;101546.91;5265396;22;20506;-73
2022/03/11 02:06:04;;;;;;;17.17;10.37;;;;;;;7.34;40.82;101542.75;5251176;28;20457;-73
2022/03/11 02:08:35;;;;;;;20.10;10.83;;;;;;;7.42;40.05;101538.09;5251475;28;20031;-73
2022/03/11 02:11:07;;;;;;;22.27;10.73;;;;;;;7.38;40.04;101539.13;5249694;28;20033;-73
2022/03/11 02:13:53;;;;;;;18.03;11.90;;;;;;;7.54;39.94;101533.38;5252701;28;20033;-73
2022/03/11 02:16:27;;;;;;;17.07;10.20;;;;;;;7.43;40.21;101531.13;5255635;28;20063;-72
2022/03/11 02:19:00;;;;;;;16.90;10.55;;;;;;;7.35;40.02;101524.44;5252171;28;20127;-73
2022/03/11 02:21:38;;;;;;;17.20;11.77;;;;;;;7.36;40.39;101523.56;5251170;28;20474;-72
2022/03/11 02:24:10;;;;;;;22.90;12.10;;;;;;;7.30;40.36;101522.88;5250792;28;20071;-72
2022/03/11 02:26:41;;;;;;;15.10;10.27;;;;;;;7.31;40.13;101516.78;5250792;28;20025;-72
2022/03/11 02:29:13;;;;;;;13.73;10.07;;;;;;;7.32;39.84;101515.88;5250655;28;20525;-73
2022/03/11 02:31:44;;;;;;;14.87;10.63;;;;;;;7.32;40.07;101505.44;5250785;28;20594;-73
2022/03/11 02:34:16;;;;;;;20.43;10.37;;;;;;;7.22;39.95;101497.97;5249751;28;20368;-73
2022/03/11 02:36:47;;;;;;;21.17;10.90;;;;;;;7.22;39.95;101502.34;5250723;28;20472;-72
2022/03/11 02:39:19;;;;;;;25.67;10.63;;;;;;;7.21;40.47;101501.47;5250595;28;20060;-73
2022/03/11 02:41:51;;;;;;;13.53;9.67;;;;;;;7.28;40.21;101504.72;5249203;28;20035;-73
2022/03/11 02:44:23;;;;;;;15.93;9.70;;;;;;;7.35;39.73;101493.16;5250607;28;20571;-73
2022/03/11 02:46:54;;;;;;;17.87;9.80;;;;;;;7.30;39.80;101489.00;5250419;28;20104;-73
2022/03/11 02:49:29;;;;;;;16.20;9.83;;;;;;;7.29;39.90;101492.53;5250039;28;20061;-72
2022/03/11 02:52:00;;;;;;;17.95;11.05;;;;;;;7.27;39.83;101503.03;5250340;28;20033;-73
2022/03/11 02:54:31;;;;;;;14.63;9.97;;;;;;;7.32;39.44;101492.41;5250810;28;20036;-72
2022/03/11 02:57:03;;;;;;;17.27;9.43;;;;;;;7.35;39.39;101492.31;5250626;28;20033;-72
2022/03/11 02:59:34;;;;;;;15.13;10.10;;;;;;;7.20;39.87;101493.72;5250633;28;20033;-73
2022/03/11 03:02:05;;;;;;;16.50;11.23;;;;;;;7.22;39.58;101487.56;5250273;28;20044;-72
2022/03/11 03:04:36;;;;;;;15.13;9.77;;;;;;;7.20;39.72;101481.53;5251955;28;20032;-72
2022/03/11 03:07:08;;;;;;;15.50;10.33;;;;;;;7.22;39.66;101481.50;5252014;28;20025;-72
2022/03/11 03:09:42;;;;;;;14.30;9.43;;;;;;;7.13;39.67;101477.44;5250110;28;20048;-72
2022/03/11 03:12:13;;;;;;;15.65;10.18;;;;;;;7.18;39.39;101479.88;5249006;28;20495;-72
2022/03/11 03:14:44;;;;;;;18.77;10.73;;;;;;;7.12;39.81;101480.97;5249867;28;20021;-72
2022/03/11 03:17:18;;;;;;;15.23;10.30;;;;;;;7.13;39.84;101482.66;5259161;28;20017;-72
2022/03/11 03:19:50;;;;;;;17.83;10.47;;;;;;;7.10;39.81;101483.59;5252428;28;20043;-72
2022/03/11 03:22:21;;;;;;;16.37;9.80;;;;;;;7.10;39.60;101485.38;5254376;28;20029;-72
2022/03/11 03:24:53;;;;;;;18.87;10.90;;;;;;;7.11;39.58;101487.06;5253058;28;20017;-72
2022/03/11 03:27:25;;;;;;;18.00;11.10;;;;;;;7.01;39.64;101474.38;5258069;28;20017;-72
2022/03/11 03:29:56;;;;;;;18.23;10.33;;;;;;;7.00;39.75;101477.88;5254366;28;20025;-72
2022/03/11 03:32:27;;;;;;;14.73;9.67;;;;;;;7.00;39.92;101472.66;5253136;28;20033;-72
2022/03/11 03:34:59;;;;;;;15.43;10.03;;;;;;;7.06;39.42;101475.97;5254186;28;20029;-72
2022/03/11 03:37:30;;;;;;;17.17;10.57;;;;;;;7.00;39.49;101477.00;5253760;28;20027;-72
2022/03/11 03:40:02;;;;;;;15.13;9.07;;;;;;;6.95;40.06;101474.56;5253775;28;20029;-72
2022/03/11 03:42:34;;;;;;;14.40;9.53;;;;;;;6.98;39.81;101468.44;5253829;28;20028;-72
2022/03/11 03:45:06;;;;;;;19.77;9.50;;;;;;;7.05;39.55;101476.88;5253781;28;20029;-72
2022/03/11 03:47:37;;;;;;;14.50;9.53;;;;;;;6.87;39.92;101458.38;5253517;28;20114;-72
2022/03/11 03:50:09;;;;;;;11.93;9.03;;;;;;;6.88;39.76;101465.25;5251440;28;20642;-72
2022/03/11 03:52:42;;;;;;;17.63;10.50;;;;;;;6.83;40.22;101472.38;5253401;28;20161;-72
2022/03/11 03:55:14;;;;;;;15.77;10.13;;;;;;;6.76;40.18;101464.78;5253836;28;20394;-72
2022/03/11 03:57:45;;;;;;;13.10;9.23;;;;;;;6.74;40.14;101450.97;5253833;28;20040;-72
2022/03/11 04:00:17;;;;;;;13.57;9.27;;;;;;;6.86;40.03;101462.72;5253039;28;21075;-72
2022/03/11 04:02:50;;;;;;;14.93;9.07;;;;;;;6.85;40.00;101468.84;5253984;28;20521;-72
2022/03/11 04:05:21;;;;;;;16.27;10.10;;;;;;;6.77;40.10;101466.47;5252030;28;20585;-72
2022/03/11 04:07:52;;;;;;;14.23;10.07;;;;;;;6.71;40.41;101455.44;5253802;28;20055;-72
2022/03/11 04:10:24;;;;;;;15.30;9.47;;;;;;;6.76;40.10;101459.59;5253161;28;20029;-73
2022/03/11 04:12:56;;;;;;;15.13;8.63;;;;;;;6.71;40.22;101458.91;5253351;28;20029;-72
2022/03/11 04:15:27;;;;;;;22.30;10.17;;;;;;;6.58;40.11;101452.41;5252782;28;20033;-72
2022/03/11 04:17:58;;;;;;;15.13;9.50;;;;;;;6.60;40.56;101463.59;5253101;28;20063;-72
2022/03/11 04:20:29;;;;;;;15.33;9.43;;;;;;;6.62;40.12;101459.19;5252210;28;20036;-72
2022/03/11 04:23:01;;;;;;;14.80;10.20;;;;;;;6.60;39.88;101463.59;5253035;28;20391;-73
2022/03/11 04:25:32;;;;;;;14.13;9.07;;;;;;;6.66;39.73;101447.78;5253207;28;20738;-72
2022/03/11 04:28:03;;;;;;;14.03;9.57;;;;;;;6.64;39.88;101444.38;5251938;28;20029;-72
2022/03/11 04:30:35;;;;;;;13.90;9.97;;;;;;;6.63;39.76;101442.69;5253129;28;20108;-72
2022/03/11 04:33:06;;;;;;;17.63;9.53;;;;;;;6.64;39.61;101433.97;5251956;28;20609;-72
2022/03/11 04:35:37;;;;;;;14.30;10.30;;;;;;;6.63;39.83;101437.47;5252677;28;20174;-72
2022/03/11 04:38:09;;;;;;;13.90;9.10;;;;;;;6.57;39.82;101437.66;5252336;28;20028;-73
2022/03/11 04:40:40;;;;;;;14.80;9.13;;;;;;;6.63;39.57;101440.91;5253077;28;20040;-72
2022/03/11 04:43:11;;;;;;;13.67;9.20;;;;;;;6.57;39.58;101425.50;5252058;28;20454;-72
2022/03/11 04:45:42;;;;;;;15.30;9.37;;;;;;;6.65;39.14;101435.66;5253235;28;20087;-72
2022/03/11 04:48:14;;;;;;;13.80;9.37;;;;;;;6.69;39.68;101444.22;5251322;28;20029;-72
2022/03/11 04:50:46;;;;;;;13.27;8.60;;;;;;;6.68;39.54;101448.59;5252708;28;20029;-72
2022/03/11 04:53:17;;;;;;;11.43;8.37;;;;;;;6.67;39.39;101443.44;5251207;28;20036;-72
2022/03/11 04:55:49;;;;;;;12.00;8.87;;;;;;;6.73;39.37;101441.47;5252405;28;20037;-72
2022/03/11 04:58:20;;;;;;;12.83;7.90;;;;;;;6.67;39.33;101439.06;5253419;28;20036;-72
2022/03/11 05:00:51;;;;;;;15.57;9.57;;;;;;;6.66;39.46;101439.97;5252043;28;20103;-72
2022/03/11 05:03:23;;;;;;;13.60;8.07;;;;;;;6.65;39.47;101446.06;5249828;28;20041;-72
2022/03/11 05:05:54;;;;;;;14.90;9.20;;;;;;;6.62;39.45;101430.56;5252073;28;20013;-72
2022/03/11 05:08:25;;;;;;;12.10;8.73;;;;;;;6.64;39.93;101429.63;5252402;28;20006;-72
2022/03/11 05:10:57;;;;;;;13.47;9.00;;;;;;;6.65;39.50;101438.25;5252347;28;20029;-72
2022/03/11 05:13:28;;;;;;;16.57;9.23;;;;;;;6.59;39.60;101430.66;5251617;28;20127;-72
2022/03/11 05:16:00;;;;;;;14.87;8.70;;;;;;;6.59;39.48;101434.13;5250904;28;20120;-72
2022/03/11 05:18:32;;;;;;;16.33;8.90;;;;;;;6.59;39.95;101433.28;5249586;28;20024;-72
2022/03/11 05:21:03;;;;;;;15.23;8.67;;;;;;;6.52;39.84;101427.41;5252774;28;20035;-72
2022/03/11 05:23:35;;;;;;;12.87;8.10;;;;;;;6.52;40.10;101427.41;5255618;28;20021;-72
2022/03/11 05:26:24;;;;;;;12.47;8.53;;;;;;;6.51;39.94;101429.16;5250061;28;20068;-72
2022/03/11 05:29:00;;;;;;;13.70;8.23;;;;;;;6.57;39.91;101422.06;5251494;28;20036;-72
2022/03/11 05:31:31;;;;;;;14.23;8.60;;;;;;;6.59;39.93;101430.66;5250846;28;20389;-72
2022/03/11 05:34:02;;;;;;;14.83;8.20;;;;;;;6.54;39.92;101426.47;5250330;28;20035;-72
2022/03/11 05:36:35;;;;;;;15.50;7.70;;;;;;;6.61;39.94;101421.06;5250610;28;20025;-72
2022/03/11 05:39:06;;;;;;;11.97;8.53;;;;;;;6.49;39.95;101420.56;5251201;28;20029;-72
2022/03/11 05:41:38;;;;;;;16.23;8.90;;;;;;;6.49;39.91;101423.16;5251476;28;20036;-72
2022/03/11 05:44:09;;;;;;;12.00;8.27;;;;;;;6.57;40.04;101424.66;5251264;28;20079;-72
2022/03/11 05:46:40;;;;;;;14.27;8.13;;;;;;;6.54;40.22;101428.22;5251802;28;20005;-72
2022/03/11 05:49:12;;;;;;;12.70;7.60;;;;;;;6.58;40.34;101421.16;5250157;28;20033;-72
2022/03/11 05:51:43;;;;;;;10.60;7.77;;;;;;;6.46;40.20;101420.66;5252568;28;20577;-72
2022/03/11 05:54:15;;;;;;;14.83;9.27;;;;;;;6.49;40.35;101424.94;5250821;28;20104;-72
2022/03/11 05:56:50;;;;;;;14.30;8.57;;;;;;;6.50;40.47;101424.88;5251323;28;20051;-72
2022/03/11 05:59:22;;;;;;;12.07;8.43;;;;;;;6.51;40.54;101418.75;5251143;28;20029;-72
2022/03/11 06:01:53;;;;;;;12.50;7.70;;;;;;;6.62;40.25;101418.41;5250767;28;20541;-72
2022/03/11 06:04:24;;;;;;;15.90;9.03;;;;;;;6.36;41.05;101409.72;5251663;28;20043;-72
2022/03/11 06:06:56;;;;;;;11.97;8.53;;;;;;;6.56;40.63;101412.56;5253794;28;20049;-72
2022/03/11 06:09:27;;;;;;;14.57;8.30;;;;;;;6.48;40.63;101405.84;5250848;28;20091;-72
2022/03/11 06:11:58;;;;;;;13.37;9.37;;;;;;;6.44;40.87;101409.44;5248830;28;20762;-72
2022/03/11 06:14:30;;;;;;;15.17;8.13;;;;;;;6.52;40.79;101414.41;5251235;28;20029;-72
2022/03/11 06:17:01;;;;;;;14.53;7.63;;;;;;;6.56;40.91;101416.03;5246781;28;20098;-71
2022/03/11 06:19:33;;;;;;;12.37;8.53;;;;;;;6.51;40.78;101413.56;5245469;28;20029;-71
2022/03/11 06:22:04;;;;;;;13.63;8.77;;;;;;;6.49;41.18;101424.94;5249615;28;20041;-71
2022/03/11 06:24:35;;;;;;;14.40;8.57;;;;;;;6.49;41.14;101425.75;5250424;28;20060;-72
2022/03/11 06:27:07;;;;;;;12.40;9.03;;;;;;;6.49;41.27;101420.56;5246666;28;20027;-72
2022/03/11 06:29:38;;;;;;;16.27;9.10;;;;;;;6.41;41.48;101422.56;5237626;28;20021;-74
2022/03/11 06:32:09;;;;;;;13.73;7.60;;;;;;;6.44;41.74;101422.47;5249025;28;20021;-74
2022/03/11 06:34:40;;;;;;;14.00;9.67;;;;;;;6.51;41.42;101423.13;5242579;28;20032;-83
2022/03/11 06:37:11;;;;;;;16.67;10.20;;;;;;;6.49;41.20;101427.53;5239467;28;20025;-82
2022/03/11 06:39:43;;;;;;;16.07;9.50;;;;;;;6.45;41.82;101423.31;5250061;28;20033;-81
2022/03/11 06:42:14;;;;;;;15.30;9.07;;;;;;;6.49;41.86;101417.94;5249497;28;20040;-81
2022/03/11 06:44:46;;;;;;;14.00;8.73;;;;;;;6.45;41.93;101413.78;5251022;28;20392;-84
2022/03/11 06:47:17;;;;;;;18.67;9.30;;;;;;;6.59;41.63;101420.25;5237556;28;20044;-80
2022/03/11 06:49:49;;;;;;;12.30;8.20;;;;;;;6.62;41.89;101425.34;5248628;28;20519;-78
2022/03/11 06:52:20;;;;;;;14.43;8.87;;;;;;;6.64;41.89;101423.56;5243531;28;20053;-70
2022/03/11 06:54:51;;;;;;;17.57;9.27;;;;;;;6.64;42.10;101424.41;5241436;28;20041;-70
2022/03/11 06:57:22;;;;;;;15.67;9.03;;;;;;;6.77;41.93;101429.22;5246353;28;20025;-70
2022/03/11 06:59:54;;;;;;;16.20;8.53;;;;;;;6.68;42.08;101421.69;5250725;28;20391;-70
2022/03/11 07:02:25;;;;;;;12.20;8.23;;;;;;;6.85;41.71;101426.31;5243903;28;20119;-69
2022/03/11 07:04:56;;;;;;;13.60;8.00;;;;;;;6.80;41.71;101410.00;5242081;28;20052;-70
2022/03/11 07:07:30;;;;;;;14.07;9.57;;;;;;;6.81;42.07;101419.53;5240157;28;20110;-71
2022/03/11 07:10:06;;;;;;;14.80;9.70;;;;;;;6.88;42.01;101415.78;5246012;28;20751;-71
2022/03/11 07:12:38;;;;;;;18.57;9.20;;;;;;;7.03;41.53;101409.22;5246049;28;20047;-73
2022/03/11 07:15:09;;;;;;;13.13;9.97;;;;;;;6.97;41.62;101399.84;5233686;28;20033;-72
2022/03/11 07:17:41;;;;;;;18.10;10.17;;;;;;;6.97;41.65;101402.47;5231579;28;20519;-73
2022/03/11 07:20:12;;;;;;;14.70;9.37;;;;;;;7.06;41.23;101405.63;5233033;28;20476;-72
2022/03/11 07:22:47;;;;;;;16.43;9.13;;;;;;;7.10;41.41;101397.63;5238564;28;20074;-73
2022/03/11 07:25:19;;;;;;;16.43;9.97;;;;;;;7.06;41.21;101390.00;5251174;28;20025;-73
2022/03/11 07:27:52;;;;;;;19.57;9.80;;;;;;;7.24;41.27;101401.53;5241114;28;20376;-73
2022/03/11 07:30:23;;;;;;;18.13;9.57;;;;;;;7.26;41.26;101405.75;5237740;28;20037;-72
2022/03/11 07:32:54;;;;;;;16.27;9.97;;;;;;;7.39;40.91;101415.72;5252987;28;20033;-73
2022/03/11 07:35:26;;;;;;;13.03;9.43;;;;;;;7.54;40.85;101418.69;5246532;28;20032;-73
2022/03/11 07:37:57;;;;;;;18.10;9.77;;;;;;;7.69;40.67;101415.47;5241179;28;20505;-73
2022/03/11 07:40:28;;;;;;;17.17;9.83;;;;;;;7.84;40.39;101411.44;5242951;28;20033;-73
2022/03/11 07:43:00;;;;;;;16.07;9.10;;;;;;;7.89;40.26;101415.63;5244867;28;20021;-73
2022/03/11 07:45:32;;;;;;;13.83;9.37;;;;;;;7.98;40.03;101408.28;5252652;28;20005;-73
2022/03/11 07:48:03;;;;;;;18.10;10.03;;;;;;;8.19;39.41;101412.69;5252789;28;20067;-73
2022/03/11 07:50:35;;;;;;;17.80;9.00;;;;;;;8.37;39.15;101413.69;5252217;28;20021;-73
2022/03/11 07:53:06;;;;;;;18.57;10.30;;;;;;;8.74;38.74;101392.19;5243949;28;20051;-74
2022/03/11 07:55:37;;;;;;;18.43;10.23;;;;;;;9.17;37.99;101403.38;5241397;28;20025;-74
2022/03/11 07:58:09;;;;;;;19.20;9.60;;;;;;;9.59;37.02;101398.00;5240865;28;20034;-73
2022/03/11 08:00:41;;;;;;;16.80;9.70;;;;;;;9.90;36.62;101383.47;5245526;28;20025;-74
2022/03/11 08:03:12;;;;;;;14.90;9.23;;;;;;;10.11;35.89;101404.28;5243826;28;20048;-73
2022/03/11 08:05:44;;;;;;;15.50;9.77;;;;;;;10.25;35.24;101394.88;5250519;28;20029;-73
2022/03/11 08:08:15;;;;;;;19.83;10.80;;;;;;;10.28;35.17;101390.34;5233401;28;20025;-73
2022/03/11 08:10:47;;;;;;;15.93;10.33;;;;;;;10.32;35.18;101384.94;5252831;28;20395;-72
2022/03/11 08:13:18;;;;;;;21.20;10.17;;;;;;;10.59;34.80;101382.75;5247904;28;20036;-71
2022/03/11 08:15:50;;;;;;;18.37;11.53;;;;;;;10.99;34.02;101379.81;5253014;28;20509;-70
2022/03/11 08:18:22;;;;;;;15.97;9.77;;;;;;;11.39;33.89;101389.09;5245818;28;20498;-72
2022/03/11 08:20:53;;;;;;;23.13;10.37;;;;;;;11.80;32.89;101392.13;5247641;28;20490;-71
2022/03/11 08:23:24;;;;;;;17.67;10.87;;;;;;;12.30;32.78;101395.44;5245486;28;20094;-72
2022/03/11 08:25:56;;;;;;;18.57;10.00;;;;;;;12.43;31.94;101389.44;5252571;28;20021;-72
2022/03/11 08:28:28;;;;;;;16.47;11.07;;;;;;;13.09;31.17;101390.81;5252096;28;20082;-72
2022/03/11 08:30:59;;;;;;;18.20;10.33;;;;;;;13.66;30.32;101383.78;5251961;28;20040;-73
2022/03/11 08:33:30;;;;;;;17.97;11.07;;;;;;;13.78;29.72;101403.19;5246676;28;20086;-72
2022/03/11 08:36:02;;;;;;;15.27;10.40;;;;;;;14.00;29.46;101397.38;5247444;28;20049;-72
2022/03/11 08:38:33;;;;;;;17.03;10.17;;;;;;;14.47;29.07;101373.22;5230315;28;20416;-72
2022/03/11 08:41:07;;;;;;;16.73;10.47;;;;;;;14.22;29.41;101382.78;5237338;28;20029;-72
2022/03/11 08:43:38;;;;;;;15.20;10.40;;;;;;;14.69;28.84;101373.53;5248708;28;20036;-71
2022/03/11 08:46:10;;;;;;;14.57;10.97;;;;;;;14.90;28.33;101388.84;5250334;28;20029;-72
2022/03/11 08:48:43;;;;;;;11.67;9.73;;;;;;;15.04;28.16;101379.97;5249495;28;20036;-72
2022/03/11 08:51:14;;;;;;;14.63;9.87;;;;;;;15.25;28.05;101367.06;5236900;28;20029;-72
2022/03/11 08:53:46;;;;;;;13.90;10.13;;;;;;;15.19;28.13;101365.69;5246580;28;20451;-72
2022/03/11 08:56:21;;;;;;;13.93;10.87;;;;;;;15.85;27.77;101376.84;5248185;28;20021;-72
2022/03/11 08:58:53;;;;;;;24.70;11.07;;;;;;;16.24;27.21;101383.72;5251514;28;20430;-72
2022/03/11 09:01:24;;;;;;;13.27;10.27;;;;;;;17.04;26.00;101367.91;5249062;28;20064;-72
2022/03/11 09:03:55;;;;;;;14.50;11.30;;;;;;;17.42;25.66;101365.84;5249668;28;20059;-71
2022/03/11 09:06:27;;;;;;;20.20;11.67;;;;;;;17.72;24.79;101361.66;5250573;28;20029;-73
2022/03/11 09:08:58;;;;;;;16.07;10.63;;;;;;;17.97;24.74;101359.63;5249914;28;20025;-75
2022/03/11 09:11:31;;;;;;;17.73;11.20;;;;;;;17.89;24.73;101356.78;5247649;28;20031;-75
2022/03/11 09:14:02;;;;;;;15.30;10.33;;;;;;;18.59;24.54;101358.88;5248159;28;20029;-74
2022/03/11 09:16:34;;;;;;;19.03;11.43;;;;;;;17.91;24.57;101370.72;5250971;28;20762;-76
2022/03/11 09:19:05;;;;;;;21.50;11.63;;;;;;;17.53;24.91;101364.97;5249387;28;20029;-74
2022/03/11 09:21:36;;;;;;;14.30;10.60;;;;;;;17.77;25.76;101366.56;5241488;28;20051;-75
2022/03/11 09:24:07;;;;;;;15.77;11.23;;;;;;;17.66;25.12;101359.53;5251254;28;20032;-77
2022/03/11 09:26:39;;;;;;;17.13;11.97;;;;;;;18.31;24.67;101350.66;5251049;28;20075;-71
2022/03/11 09:29:10;;;;;;;17.20;10.33;;;;;;;18.69;24.23;101352.81;5250896;28;20029;-72
2022/03/11 09:31:41;;;;;;;17.17;11.03;;;;;;;17.61;25.17;101338.69;5245867;28;20113;-73
2022/03/11 09:34:13;;;;;;;17.90;12.03;;;;;;;17.63;25.26;101326.16;5249198;28;20044;-73
2022/03/11 09:36:44;;;;;;;23.57;11.90;;;;;;;19.34;23.91;101344.47;5241187;28;20032;-72
2022/03/11 09:39:15;;;;;;;18.27;11.53;;;;;;;19.97;23.11;101346.84;5228260;28;20030;-73
2022/03/11 09:41:47;;;;;;;20.00;10.90;;;;;;;19.00;23.58;101344.81;5232231;28;20620;-73
2022/03/11 09:44:20;;;;;;;23.37;11.30;;;;;;;18.90;24.04;101341.28;5249954;28;20397;-73
2022/03/11 09:46:51;;;;;;;16.13;10.93;;;;;;;18.41;24.53;101332.16;5249754;28;20027;-75
2022/03/11 09:49:23;;;;;;;18.37;11.17;;;;;;;18.96;24.17;101328.31;5251093;28;20032;-74
2022/03/11 09:51:55;;;;;;;22.93;11.33;;;;;;;19.09;23.61;101316.59;5240298;28;20029;-73
2022/03/11 09:54:26;;;;;;;20.60;11.30;;;;;;;18.78;24.09;101325.44;5246566;28;20032;-79
2022/03/11 09:56:58;;;;;;;13.20;9.93;;;;;;;19.56;23.87;101300.03;5242835;28;20656;-76
2022/03/11 09:59:29;;;;;;;16.60;10.60;;;;;;;19.61;23.93;101304.09;5248911;28;20037;-78
2022/03/11 10:02:00;;;;;;;15.07;10.73;;;;;;;18.94;24.22;101305.53;5242658;28;20577;-78
2022/03/11 10:04:32;;;;;;;14.20;10.07;;;;;;;20.32;23.55;101323.28;5245228;28;20556;-74
2022/03/11 10:07:04;;;;;;;18.60;11.33;;;;;;;19.85;23.24;101305.44;5237707;28;20025;-81
2022/03/11 10:09:35;;;;;;;16.07;10.67;;;;;;;20.54;23.21;101305.31;5229694;28;20022;-81
2022/03/11 10:12:07;;;;;;;13.93;9.07;;;;;;;21.44;22.40;101294.94;5230738;28;20020;-78
2022/03/11 10:14:39;;;;;;;14.80;10.23;;;;;;;21.45;21.57;101300.09;5249361;28;20025;-69
2022/03/11 10:17:20;;;;;;;25.40;10.80;;;;;;;22.27;21.98;101300.06;5247574;28;20398;-72
2022/03/11 10:20:03;;;;;;;13.90;10.43;;;;;;;21.86;21.93;101288.97;5250201;28;20028;-72
2022/03/11 10:22:35;;;;;;;13.40;10.00;;;;;;;22.70;21.11;101287.59;5241106;28;20037;-73
2022/03/11 10:25:13;;;;;;;14.20;9.82;;;;;;;23.03;20.49;101285.97;5248337;28;20048;-77
2022/03/11 10:27:58;;;;;;;19.65;10.70;;;;;;;22.88;21.14;101289.31;5250866;28;20020;-73
2022/03/11 10:30:41;;;;;;;17.25;10.95;;;;;;;22.59;21.02;101287.84;5239253;28;20116;-78
2022/03/11 10:33:14;;;;;;;22.85;11.10;;;;;;;20.44;22.60;101294.69;5242773;28;20048;-77
2022/03/11 10:35:47;;;;;;;13.23;10.02;;;;;;;19.95;23.44;101271.72;5248931;28;20040;-81
2022/03/11 10:38:20;;;;;;;17.95;10.85;;;;;;;20.07;23.78;101278.56;5227155;28;20025;-82
2022/03/11 10:40:54;;;;;;;20.95;10.75;;;;;;;20.16;23.82;101276.88;5230684;28;20084;-80
2022/03/11 10:43:28;;;;;;;13.48;9.25;;;;;;;20.10;24.27;101258.84;5243067;28;20036;-77
2022/03/11 10:46:02;;;;;;;17.98;10.25;;;;;;;21.22;22.96;101259.78;5249584;28;20021;-74
2022/03/11 10:48:47;;;;;;;16.53;10.90;;;;;;;20.26;23.92;101250.25;5249006;28;20388;-75
2022/03/11 10:51:20;;;;;;;12.03;10.13;;;;;;;18.99;25.42;101259.03;5242343;28;20060;-77
2022/03/11 10:53:52;;;;;;;12.88;9.93;;;;;;;19.13;25.56;101237.56;5244613;28;20024;-77
2022/03/11 10:56:29;;;;;;;16.83;10.23;;;;;;;18.29;26.99;101243.91;5248939;28;20484;-69
2022/03/11 10:59:11;;;;;;;12.30;10.50;;;;;;;17.89;27.22;101235.72;5249215;28;20104;-73
2022/03/11 11:01:44;;;;;;;15.10;12.50;;;;;;;17.27;28.18;101251.47;5246067;28;20033;-74
2022/03/11 11:04:17;;;;;;;18.87;10.50;;;;;;;17.35;28.84;101213.78;5245980;28;20029;-74
2022/03/11 11:06:49;;;;;;;27.00;11.60;;;;;;;17.31;28.38;101230.88;5238810;28;20140;-74
2022/03/11 11:09:23;;;;;;;17.77;11.57;;;;;;;17.39;28.66;101231.91;5228632;28;20593;-73
2022/03/11 11:11:55;;;;;;;18.47;13.07;;;;;;;17.16;28.55;101229.38;5231514;28;20056;-73
2022/03/11 11:14:26;;;;;;;25.73;13.00;;;;;;;16.90;28.79;101229.66;5239888;28;20690;-74
2022/03/11 11:17:00;;;;;;;22.17;12.50;;;;;;;17.65;28.28;101233.34;5235861;28;20522;-75
2022/03/11 11:19:33;;;;;;;19.35;12.95;;;;;;;17.47;28.32;101230.44;5237737;28;20088;-77
2022/03/11 11:22:04;;;;;;;17.93;12.73;;;;;;;16.48;29.80;101219.75;5234691;28;20540;-74
2022/03/11 11:24:39;;;;;;;19.50;12.73;;;;;;;16.36;30.09;101221.56;5243437;28;20021;-78
2022/03/11 11:27:11;;;;;;;17.13;12.60;;;;;;;16.42;29.88;101210.50;5247985;28;20079;-76
2022/03/11 11:29:42;;;;;;;24.50;14.03;;;;;;;16.65;29.76;101207.00;5247966;28;20021;-75
2022/03/11 11:32:16;;;;;;;21.33;12.27;;;;;;;16.99;29.65;101201.59;5240489;28;20108;-76
2022/03/11 11:34:47;;;;;;;20.20;13.00;;;;;;;16.68;29.69;101201.47;5246946;28;20029;-71
2022/03/11 11:37:38;;;;;;;18.67;12.70;;;;;;;16.68;29.80;101198.81;5234603;28;20026;-73
2022/03/11 11:40:23;;;;;;;17.67;12.77;;;;;;;16.44;30.09;101187.41;5237310;28;20029;-71
2022/03/11 11:43:26;;;;;;;24.03;13.50;;;;;;;16.26;30.84;101188.88;5234745;28;20030;-75